createdAt,value
2022-08-19T00:01:53.946Z,83.90
2022-08-19T00:04:25.656Z,84.10
2022-08-19T00:06:53.037Z,83.90
2022-08-19T00:09:20.307Z,84.40
2022-08-19T00:11:47.842Z,84.50
2022-08-19T00:14:16.684Z,84.20
2022-08-19T00:16:44.542Z,83.50
2022-08-19T00:19:11.355Z,83.30
2022-08-19T00:21:40.992Z,83.40
2022-08-19T00:24:09.057Z,83.40
2022-08-19T00:26:36.890Z,83.40
2022-08-19T00:29:04.518Z,83.60
2022-08-19T00:31:32.791Z,83.70
2022-08-19T00:34:00.110Z,84.00
2022-08-19T00:36:27.347Z,83.80
2022-08-19T00:38:54.330Z,83.60
2022-08-19T00:41:22.363Z,83.50
2022-08-19T00:43:59.702Z,83.20
2022-08-19T00:46:28.670Z,82.90
2022-08-19T00:48:56.013Z,82.60
2022-08-19T00:51:23.336Z,82.60
2022-08-19T00:53:50.179Z,82.00
2022-08-19T00:56:18.447Z,81.60
2022-08-19T00:58:45.384Z,81.60
2022-08-19T01:01:12.159Z,81.60
2022-08-19T01:03:57.251Z,81.40
2022-08-19T01:06:26.440Z,81.50
2022-08-19T01:08:53.538Z,81.20
2022-08-19T01:11:20.359Z,81.00
2022-08-19T01:13:49.809Z,80.90
2022-08-19T01:16:19.799Z,80.30
2022-08-19T01:18:46.660Z,79.90
2022-08-19T01:21:32.945Z,79.60
2022-08-19T01:24:00.148Z,79.60
2022-08-19T01:26:27.327Z,79.50
2022-08-19T01:28:57.432Z,79.60
2022-08-19T01:31:31.417Z,79.60
2022-08-19T01:34:00.441Z,79.80
2022-08-19T01:36:38.077Z,79.30
2022-08-19T01:39:07.072Z,79.30
2022-08-19T01:41:34.180Z,79.00
2022-08-19T01:44:17.443Z,79.00
2022-08-19T01:46:48.838Z,79.00
2022-08-19T01:49:15.976Z,78.60
2022-08-19T01:51:42.717Z,77.90
2022-08-19T01:54:10.495Z,77.80
2022-08-19T01:56:37.512Z,77.30
2022-08-19T01:59:08.162Z,76.80
2022-08-19T02:01:35.847Z,76.60
2022-08-19T02:04:03.032Z,76.40
2022-08-19T02:06:29.823Z,77.20
2022-08-19T02:08:57.545Z,76.00
2022-08-19T02:11:29.092Z,76.20
2022-08-19T02:13:56.296Z,76.50
2022-08-19T02:16:23.848Z,76.90
2022-08-19T02:18:51.175Z,77.20
2022-08-19T02:21:19.170Z,76.60
2022-08-19T02:23:46.206Z,76.90
2022-08-19T02:26:13.768Z,77.60
2022-08-19T02:28:41.461Z,77.80
2022-08-19T02:31:12.040Z,78.00
2022-08-19T02:33:38.985Z,77.60
2022-08-19T02:36:06.503Z,78.00
2022-08-19T02:38:33.437Z,78.20
2022-08-19T02:41:04.131Z,78.60
2022-08-19T02:43:37.502Z,78.70
2022-08-19T02:46:18.579Z,78.50
2022-08-19T02:48:47.006Z,78.10
2022-08-19T02:51:17.090Z,77.60
2022-08-19T02:53:44.382Z,77.30
2022-08-19T02:56:11.273Z,77.40
2022-08-19T02:58:38.082Z,77.60
2022-08-19T03:01:05.214Z,77.40
2022-08-19T03:03:32.978Z,76.70
2022-08-19T03:06:06.503Z,75.40
2022-08-19T03:08:33.646Z,74.90
2022-08-19T03:11:00.447Z,74.60
2022-08-19T03:13:27.304Z,74.90
2022-08-19T03:15:54.057Z,74.70
2022-08-19T03:18:23.162Z,75.10
2022-08-19T03:20:51.336Z,75.30
2022-08-19T03:23:18.342Z,74.70
2022-08-19T03:25:46.767Z,74.70
2022-08-19T03:28:27.279Z,74.50
2022-08-19T03:31:01.460Z,74.30
2022-08-19T03:33:29.740Z,74.20
2022-08-19T03:36:01.106Z,73.40
2022-08-19T03:38:27.945Z,73.80
2022-08-19T03:40:54.994Z,73.70
2022-08-19T03:43:23.035Z,73.50
2022-08-19T03:45:49.873Z,73.70
2022-08-19T03:48:18.357Z,73.80
2022-08-19T03:50:45.336Z,73.50
2022-08-19T03:53:12.250Z,73.40
2022-08-19T03:55:42.754Z,73.10
2022-08-19T03:58:09.762Z,72.90
2022-08-19T04:00:37.854Z,72.50
2022-08-19T04:03:04.604Z,72.10
2022-08-19T04:05:31.376Z,71.80
2022-08-19T04:08:00.167Z,72.00
2022-08-19T04:10:27.750Z,71.90
2022-08-19T04:12:54.941Z,72.20
2022-08-19T04:15:21.935Z,71.60
2022-08-19T04:17:48.703Z,71.70
2022-08-19T04:20:15.677Z,71.20
2022-08-19T04:22:42.698Z,71.20
2022-08-19T04:25:09.922Z,71.30
2022-08-19T04:27:36.826Z,71.20
2022-08-19T04:30:03.966Z,71.20
2022-08-19T04:32:32.068Z,70.30
2022-08-19T04:35:15.841Z,70.60
2022-08-19T04:37:44.610Z,70.70
2022-08-19T04:40:30.643Z,70.70
2022-08-19T04:42:57.490Z,71.00
2022-08-19T04:45:24.298Z,71.10
2022-08-19T04:47:58.975Z,70.80
2022-08-19T04:50:40.777Z,70.80
2022-08-19T04:53:07.511Z,71.50
2022-08-19T04:55:38.283Z,70.80
2022-08-19T04:58:05.203Z,70.80
2022-08-19T05:00:38.299Z,70.50
2022-08-19T05:03:05.314Z,70.30
2022-08-19T05:05:45.014Z,70.40
2022-08-19T05:08:13.496Z,70.00
2022-08-19T05:10:42.350Z,70.10
2022-08-19T05:13:10.102Z,70.10
2022-08-19T05:15:37.317Z,70.10
2022-08-19T05:18:22.454Z,70.00
2022-08-19T05:21:07.727Z,70.10
2022-08-19T05:23:34.514Z,69.60
2022-08-19T05:26:01.215Z,69.50
2022-08-19T05:28:28.729Z,69.10
2022-08-19T05:30:58.333Z,69.10
2022-08-19T05:33:25.329Z,68.40
2022-08-19T05:35:53.604Z,68.00
2022-08-19T05:38:21.099Z,67.70
2022-08-19T05:40:49.089Z,67.30
2022-08-19T05:43:19.094Z,67.30
2022-08-19T05:45:45.868Z,66.90
2022-08-19T05:48:12.899Z,67.00
2022-08-19T05:50:41.258Z,66.60
2022-08-19T05:53:09.873Z,66.80
2022-08-19T05:55:37.922Z,66.80
2022-08-19T05:58:04.798Z,65.80
2022-08-19T06:00:32.505Z,65.80
2022-08-19T06:03:00.622Z,66.70
2022-08-19T06:05:50.261Z,65.10
2022-08-19T06:08:19.332Z,65.00
2022-08-19T06:10:46.371Z,65.00
2022-08-19T06:13:13.133Z,64.90
2022-08-19T06:15:39.828Z,64.30
2022-08-19T06:18:06.646Z,64.80
2022-08-19T06:20:54.438Z,64.80
2022-08-19T06:23:21.314Z,65.60
2022-08-19T06:25:51.282Z,65.70
2022-08-19T06:28:18.257Z,66.10
2022-08-19T06:30:45.877Z,66.20
2022-08-19T06:33:12.615Z,66.40
2022-08-19T06:35:40.550Z,65.10
2022-08-19T06:38:07.760Z,64.60
2022-08-19T06:40:34.523Z,65.10
2022-08-19T06:43:03.664Z,64.60
2022-08-19T06:45:34.917Z,64.20
2022-08-19T06:48:02.685Z,64.70
2022-08-19T06:50:30.246Z,64.50
2022-08-19T06:52:57.080Z,63.70
2022-08-19T06:55:24.853Z,63.20
2022-08-19T06:57:54.535Z,63.30
2022-08-19T07:00:21.833Z,62.30
2022-08-19T07:02:53.231Z,62.50
2022-08-19T07:05:22.619Z,61.90
2022-08-19T07:07:49.352Z,61.70
2022-08-19T07:10:17.988Z,62.20
2022-08-19T07:12:45.444Z,62.50
2022-08-19T07:15:12.487Z,60.90
2022-08-19T07:17:41.875Z,61.50
2022-08-19T07:20:10.189Z,61.90
2022-08-19T07:22:38.651Z,62.20
2022-08-19T07:25:06.992Z,61.70
2022-08-19T07:27:34.920Z,62.30
2022-08-19T07:30:01.849Z,61.20
2022-08-19T07:32:28.857Z,62.10
2022-08-19T07:34:56.926Z,62.10
2022-08-19T07:37:27.363Z,62.80
2022-08-19T07:39:56.310Z,61.20
2022-08-19T07:42:23.450Z,59.90
2022-08-19T07:44:50.998Z,59.90
2022-08-19T07:47:47.415Z,59.40
2022-08-19T07:50:07.808Z,58.80
2022-08-19T07:52:35.215Z,58.90
2022-08-19T07:55:04.781Z,57.20
2022-08-19T07:57:31.791Z,56.70
2022-08-19T07:59:58.797Z,56.10
2022-08-19T08:02:25.731Z,55.30
2022-08-19T08:05:11.253Z,56.40
2022-08-19T08:07:56.750Z,56.30
2022-08-19T08:10:24.530Z,55.10
2022-08-19T08:13:08.962Z,55.00
2022-08-19T08:15:42.101Z,52.50
2022-08-19T08:18:10.576Z,53.30
2022-08-19T08:20:37.319Z,53.10
2022-08-19T08:23:22.843Z,50.90
2022-08-19T08:25:50.018Z,51.50
2022-08-19T08:28:18.071Z,51.30
2022-08-19T08:30:46.834Z,51.20
2022-08-19T08:35:46.804Z,52.00
2022-08-19T08:38:13.615Z,52.40
2022-08-19T08:40:44.785Z,53.00
2022-08-19T08:43:32.248Z,53.60
2022-08-19T08:46:02.235Z,53.40
2022-08-19T08:48:52.629Z,53.60
2022-08-19T08:51:23.635Z,53.40
2022-08-19T08:53:51.734Z,53.80
2022-08-19T08:56:24.202Z,51.80
2022-08-19T08:59:00.261Z,52.60
2022-08-19T09:01:30.207Z,55.60
2022-08-19T09:03:57.715Z,56.80
2022-08-19T09:06:33.170Z,58.10
2022-08-19T09:09:00.642Z,58.60
2022-08-19T09:11:42.617Z,59.80
2022-08-19T09:14:34.978Z,56.00
2022-08-19T09:17:04.393Z,58.50
2022-08-19T09:19:31.296Z,62.20
2022-08-19T09:22:01.738Z,63.70
2022-08-19T09:24:31.125Z,64.60
2022-08-19T09:26:58.131Z,64.40
2022-08-19T09:29:25.628Z,64.60
2022-08-19T09:31:52.552Z,65.10
2022-08-19T09:34:22.202Z,65.30
2022-08-19T09:36:53.995Z,63.30
2022-08-19T09:39:22.037Z,63.60
2022-08-19T09:41:50.885Z,64.10
2022-08-19T09:44:18.875Z,63.80
2022-08-19T09:46:48.416Z,63.50
2022-08-19T09:49:15.957Z,64.10
2022-08-19T09:51:50.373Z,64.30
2022-08-19T09:54:24.996Z,64.10
2022-08-19T09:56:52.828Z,62.60
2022-08-19T09:59:19.563Z,62.80
2022-08-19T10:01:46.380Z,61.80
2022-08-19T10:04:19.692Z,57.70
2022-08-19T10:06:48.678Z,58.70
2022-08-19T10:09:33.759Z,59.50
2022-08-19T10:12:02.561Z,61.70
2022-08-19T10:14:29.766Z,63.00
2022-08-19T10:16:57.559Z,63.30
2022-08-19T10:19:26.552Z,63.90
2022-08-19T10:21:54.246Z,63.00
2022-08-19T10:24:25.225Z,63.30
2022-08-19T10:26:57.074Z,63.80
2022-08-19T10:29:32.043Z,63.10
2022-08-19T10:32:02.955Z,63.70
2022-08-19T10:34:30.470Z,64.30
2022-08-19T10:37:01.331Z,64.70
2022-08-19T10:39:32.762Z,65.60
2022-08-19T10:42:14.267Z,66.20
2022-08-19T10:44:41.376Z,66.60
2022-08-19T10:47:17.685Z,66.10
2022-08-19T10:50:14.956Z,65.30
2022-08-19T10:52:49.801Z,65.70
2022-08-19T10:55:37.311Z,66.40
2022-08-19T10:58:04.426Z,67.10
2022-08-19T11:00:32.528Z,66.50
2022-08-19T11:02:59.683Z,67.40
2022-08-19T11:05:26.411Z,66.40
2022-08-19T11:07:53.630Z,65.70
2022-08-19T11:10:22.022Z,66.10
2022-08-19T11:12:49.496Z,67.50
2022-08-19T11:15:16.350Z,66.10
2022-08-19T11:17:44.476Z,65.20
2022-08-19T11:20:15.302Z,64.60
2022-08-19T11:22:42.815Z,62.90
2022-08-19T11:25:11.916Z,60.80
2022-08-19T11:27:40.683Z,60.20
2022-08-19T11:30:09.499Z,58.90
2022-08-19T11:32:40.452Z,58.10
2022-08-19T11:35:08.570Z,57.60
2022-08-19T11:37:38.276Z,58.10
2022-08-19T11:40:07.146Z,58.20
2022-08-19T11:42:52.717Z,57.90
2022-08-19T11:45:19.557Z,58.30
2022-08-19T11:47:47.619Z,57.60
2022-08-19T11:50:15.186Z,56.40
2022-08-19T11:52:42.240Z,55.40
2022-08-19T11:55:09.470Z,55.30
2022-08-19T11:57:36.287Z,53.50
2022-08-19T12:00:04.729Z,53.60
2022-08-19T12:02:31.530Z,51.80
2022-08-19T12:04:58.490Z,52.00
2022-08-19T12:07:26.012Z,53.40
2022-08-19T12:09:52.972Z,53.70
2022-08-19T12:12:23.027Z,50.20
2022-08-19T12:14:51.836Z,51.10
2022-08-19T12:17:18.584Z,50.20
2022-08-19T12:19:45.502Z,49.10
2022-08-19T12:22:12.529Z,49.60
2022-08-19T12:24:39.285Z,50.10
2022-08-19T12:27:06.024Z,50.30
2022-08-19T12:29:39.631Z,50.00
2022-08-19T12:32:06.491Z,49.30
2022-08-19T12:34:39.339Z,50.40
2022-08-19T12:37:07.106Z,50.30
2022-08-19T12:39:38.578Z,49.50
2022-08-19T12:42:05.597Z,48.00
2022-08-19T12:44:33.588Z,48.60
2022-08-19T12:47:00.912Z,47.00
2022-08-19T12:49:52.048Z,47.30
2022-08-19T12:52:22.954Z,47.60
2022-08-19T12:54:54.013Z,46.30
2022-08-19T12:57:22.271Z,46.00
2022-08-19T12:59:54.647Z,46.60
2022-08-19T13:02:22.552Z,46.50
2022-08-19T13:04:49.554Z,45.30
2022-08-19T13:07:16.490Z,45.60
2022-08-19T13:09:43.776Z,45.20
2022-08-19T13:12:13.902Z,44.20
2022-08-19T13:14:41.589Z,43.70
2022-08-19T13:17:09.346Z,43.80
2022-08-19T13:19:37.573Z,45.00
2022-08-19T13:22:04.495Z,44.90
2022-08-19T13:24:42.910Z,44.80
2022-08-19T13:27:13.292Z,43.60
2022-08-19T13:29:59.752Z,44.00
2022-08-19T13:32:45.303Z,42.50
2022-08-19T13:35:16.676Z,43.50
2022-08-19T13:37:44.263Z,41.90
2022-08-19T13:40:13.996Z,42.80
2022-08-19T13:42:41.264Z,42.10
2022-08-19T13:45:08.774Z,41.90
2022-08-19T13:47:35.859Z,41.20
2022-08-19T13:50:05.877Z,41.70
2022-08-19T13:52:32.690Z,41.70
2022-08-19T13:54:59.725Z,42.30
2022-08-19T13:57:26.572Z,41.00
2022-08-19T13:59:53.413Z,41.40
2022-08-19T14:02:20.209Z,40.90
2022-08-19T14:04:46.940Z,40.70
2022-08-19T14:07:13.988Z,40.50
2022-08-19T14:09:40.826Z,40.70
2022-08-19T14:12:07.735Z,40.50
2022-08-19T14:14:38.234Z,40.20
2022-08-19T14:17:08.835Z,40.80
2022-08-19T14:19:38.942Z,40.80
2022-08-19T14:22:07.808Z,40.30
2022-08-19T14:24:34.598Z,38.60
2022-08-19T14:27:01.593Z,39.80
2022-08-19T14:29:30.444Z,40.00
2022-08-19T14:32:00.154Z,39.30
2022-08-19T14:34:27.304Z,39.50
2022-08-19T14:36:54.148Z,40.40
2022-08-19T14:39:21.184Z,39.70
2022-08-19T14:41:48.188Z,40.80
2022-08-19T14:44:15.151Z,38.10
2022-08-19T14:46:42.015Z,39.10
2022-08-19T14:49:16.550Z,40.20
2022-08-19T14:51:43.531Z,40.30
2022-08-19T14:54:10.309Z,40.10
2022-08-19T14:56:37.245Z,38.70
2022-08-19T14:59:04.196Z,39.60
2022-08-19T15:01:31.070Z,39.90
2022-08-19T15:03:57.942Z,40.40
2022-08-19T15:06:25.485Z,42.00
2022-08-19T15:08:52.817Z,41.50
2022-08-19T15:11:22.125Z,41.00
2022-08-19T15:13:49.488Z,41.10
2022-08-19T15:16:18.390Z,40.60
2022-08-19T15:18:46.119Z,39.70
2022-08-19T15:21:13.890Z,39.60
2022-08-19T15:23:41.308Z,39.10
2022-08-19T15:26:15.991Z,39.80
2022-08-19T15:28:43.305Z,40.80
2022-08-19T15:31:17.198Z,39.70
2022-08-19T15:33:57.157Z,39.80
2022-08-19T15:36:24.579Z,40.50
2022-08-19T15:38:53.177Z,40.60
2022-08-19T15:41:24.931Z,40.50
2022-08-19T15:43:53.343Z,40.40
2022-08-19T15:46:22.236Z,40.00
2022-08-19T15:48:57.169Z,39.50
2022-08-19T15:51:27.319Z,39.60
2022-08-19T15:53:54.137Z,39.10
2022-08-19T15:56:23.569Z,40.10
2022-08-19T15:59:12.163Z,39.70
2022-08-19T16:01:57.760Z,38.90
2022-08-19T16:04:43.486Z,38.90
2022-08-19T16:07:12.793Z,38.50
2022-08-19T16:09:39.527Z,38.90
2022-08-19T16:12:06.484Z,38.40
2022-08-19T16:14:35.019Z,38.90
2022-08-19T16:17:02.043Z,38.50
2022-08-19T16:19:28.847Z,37.90
2022-08-19T16:21:56.337Z,38.40
2022-08-19T16:24:24.470Z,39.10
2022-08-19T16:26:51.412Z,39.30
2022-08-19T16:29:33.832Z,38.40
2022-08-19T16:32:03.037Z,39.80
2022-08-19T16:34:30.219Z,40.00
2022-08-19T16:36:57.202Z,40.70
2022-08-19T16:39:24.263Z,42.10
2022-08-19T16:41:51.629Z,43.00
2022-08-19T16:44:19.472Z,43.20
2022-08-19T16:46:54.799Z,42.40
2022-08-19T16:49:53.817Z,41.60
2022-08-19T16:52:14.646Z,41.70
2022-08-19T16:54:41.919Z,42.10
2022-08-19T16:57:11.883Z,42.50
2022-08-19T16:59:48.477Z,42.70
2022-08-19T17:02:17.149Z,42.60
2022-08-19T17:04:43.921Z,42.40
2022-08-19T17:07:10.691Z,42.70
2022-08-19T17:09:38.005Z,43.20
2022-08-19T17:12:05.720Z,43.50
2022-08-19T17:14:32.567Z,43.40
2022-08-19T17:16:59.530Z,43.00
2022-08-19T17:19:26.481Z,43.60
2022-08-19T17:21:53.308Z,45.20
2022-08-19T17:24:20.066Z,47.10
2022-08-19T17:26:46.805Z,48.40
2022-08-19T17:29:14.167Z,49.70
2022-08-19T17:31:40.965Z,50.10
2022-08-19T17:34:09.339Z,50.80
2022-08-19T17:36:36.308Z,51.30
2022-08-19T17:39:04.779Z,51.50
2022-08-19T17:41:33.992Z,51.50
2022-08-19T17:44:01.040Z,51.40
2022-08-19T17:46:30.126Z,51.20
2022-08-19T17:48:57.714Z,51.70
2022-08-19T17:51:44.010Z,51.90
2022-08-19T17:54:12.725Z,52.80
2022-08-19T17:56:39.465Z,53.10
2022-08-19T17:59:07.827Z,53.30
2022-08-19T18:01:53.543Z,54.40
2022-08-19T18:04:21.530Z,55.70
2022-08-19T18:06:53.677Z,56.70
2022-08-19T18:09:30.064Z,57.70
2022-08-19T18:12:06.098Z,58.50
2022-08-19T18:14:34.907Z,59.10
2022-08-19T18:17:09.991Z,58.90
2022-08-19T18:19:41.999Z,58.20
2022-08-19T18:22:13.422Z,57.80
2022-08-19T18:24:45.839Z,58.00
2022-08-19T18:27:12.919Z,58.20
2022-08-19T18:29:40.372Z,58.50
2022-08-19T18:32:12.799Z,59.90
2022-08-19T18:34:43.629Z,61.10
2022-08-19T18:37:10.792Z,61.50
2022-08-19T18:39:56.401Z,62.90
2022-08-19T18:42:41.969Z,63.50
2022-08-19T18:45:28.102Z,63.90
2022-08-19T18:48:23.991Z,64.60
2022-08-19T18:50:56.058Z,64.80
2022-08-19T18:53:23.073Z,65.50
2022-08-19T18:55:51.963Z,65.80
2022-08-19T18:58:18.740Z,66.10
2022-08-19T19:00:45.504Z,66.80
2022-08-19T19:03:13.691Z,67.40
2022-08-19T19:05:40.574Z,67.70
2022-08-19T19:08:08.189Z,67.80
2022-08-19T19:10:36.323Z,68.30
2022-08-19T19:13:03.480Z,68.60
2022-08-19T19:15:30.271Z,68.40
2022-08-19T19:17:57.333Z,68.40
2022-08-19T19:20:36.694Z,68.90
2022-08-19T19:23:03.845Z,68.80
2022-08-19T19:25:49.928Z,68.90
2022-08-19T19:28:20.770Z,69.00
2022-08-19T19:30:47.641Z,69.20
2022-08-19T19:33:14.395Z,69.30
2022-08-19T19:35:47.051Z,69.20
2022-08-19T19:38:14.646Z,69.10
2022-08-19T19:40:41.476Z,70.40
2022-08-19T19:43:08.762Z,70.50
2022-08-19T19:45:36.809Z,70.50
2022-08-19T19:48:07.035Z,71.10
2022-08-19T19:50:33.856Z,71.30
2022-08-19T19:53:00.656Z,71.70
2022-08-19T19:55:28.897Z,72.40
2022-08-19T19:57:57.895Z,73.00
2022-08-19T20:00:26.176Z,73.10
2022-08-19T20:02:56.565Z,73.10
2022-08-19T20:05:23.538Z,73.10
2022-08-19T20:08:09.456Z,73.50
2022-08-19T20:10:38.134Z,74.00
2022-08-19T20:13:05.474Z,74.20
2022-08-19T20:15:32.838Z,74.80
2022-08-19T20:18:00.980Z,75.20
2022-08-19T20:20:28.520Z,75.40
2022-08-19T20:22:55.283Z,75.70
2022-08-19T20:25:22.425Z,76.60
2022-08-19T20:27:49.390Z,77.20
2022-08-19T20:30:19.708Z,78.10
2022-08-19T20:32:50.016Z,78.40
2022-08-19T20:35:19.556Z,78.10
2022-08-19T20:37:46.678Z,79.40
2022-08-19T20:40:13.851Z,79.40
2022-08-19T20:42:41.239Z,80.70
2022-08-19T20:45:16.389Z,80.80
2022-08-19T20:47:55.976Z,80.40
2022-08-19T20:50:23.205Z,80.40
2022-08-19T20:52:53.380Z,78.20
2022-08-19T20:55:22.021Z,78.40
2022-08-19T20:57:48.929Z,78.50
2022-08-19T21:00:17.149Z,80.00
2022-08-19T21:02:43.934Z,78.90
2022-08-19T21:05:11.203Z,79.40
2022-08-19T21:07:39.016Z,79.60
2022-08-19T21:10:06.901Z,79.90
2022-08-19T21:12:33.753Z,80.60
2022-08-19T21:15:00.499Z,80.90
2022-08-19T21:17:27.291Z,81.00
2022-08-19T21:19:54.027Z,80.60
2022-08-19T21:22:20.773Z,80.10
2022-08-19T21:24:47.608Z,79.60
2022-08-19T21:27:15.067Z,79.70
2022-08-19T21:29:42.284Z,79.20
2022-08-19T21:32:14.175Z,78.50
2022-08-19T21:34:43.701Z,78.00
2022-08-19T21:37:25.589Z,77.00
2022-08-19T21:39:55.888Z,75.90
2022-08-19T21:42:23.501Z,75.10
2022-08-19T21:44:50.310Z,71.80
2022-08-19T21:47:17.188Z,68.90
2022-08-19T21:49:44.193Z,67.50
2022-08-19T21:52:11.130Z,67.10
2022-08-19T21:54:38.490Z,67.00
2022-08-19T21:57:07.052Z,67.30
2022-08-19T21:59:43.459Z,67.30
2022-08-19T22:02:20.073Z,67.40
2022-08-19T22:04:48.370Z,68.00
2022-08-19T22:07:15.730Z,68.40
2022-08-19T22:09:43.010Z,68.80
2022-08-19T22:12:10.791Z,68.90
2022-08-19T22:14:37.994Z,68.10
2022-08-19T22:17:05.647Z,68.40
2022-08-19T22:19:32.623Z,68.50
2022-08-19T22:21:59.507Z,70.00
2022-08-19T22:24:26.425Z,70.00
2022-08-19T22:26:53.174Z,70.80
2022-08-19T22:29:19.947Z,70.70
2022-08-19T22:31:59.112Z,71.30
2022-08-19T22:34:26.118Z,71.00
2022-08-19T22:36:53.081Z,70.40
2022-08-19T22:39:19.797Z,68.90
2022-08-19T22:41:46.592Z,68.00
2022-08-19T22:44:13.347Z,66.50
2022-08-19T22:46:40.180Z,65.30
2022-08-19T22:49:11.761Z,65.40
2022-08-19T22:51:57.147Z,66.00
2022-08-19T22:54:24.647Z,66.00
2022-08-19T22:56:51.962Z,66.00
2022-08-19T22:59:19.350Z,64.70
2022-08-19T23:01:46.523Z,64.00
2022-08-19T23:04:13.475Z,62.80
2022-08-19T23:06:42.445Z,58.80
2022-08-19T23:09:09.475Z,57.20
2022-08-19T23:11:39.869Z,55.90
2022-08-19T23:14:11.184Z,55.20
2022-08-19T23:16:38.269Z,54.20
2022-08-19T23:19:06.223Z,53.00
2022-08-19T23:21:33.120Z,52.50
2022-08-19T23:23:59.855Z,51.70
2022-08-19T23:26:26.530Z,51.30
2022-08-19T23:29:17.170Z,50.90
2022-08-19T23:31:43.895Z,50.10
2022-08-19T23:34:11.104Z,50.00
2022-08-19T23:36:38.044Z,49.80
2022-08-19T23:39:04.754Z,49.80
2022-08-19T23:41:31.466Z,49.40
2022-08-19T23:44:00.339Z,49.10
2022-08-19T23:46:27.707Z,49.10
2022-08-19T23:48:56.042Z,48.90
2022-08-19T23:51:23.101Z,48.70
2022-08-19T23:53:49.985Z,48.10
2022-08-19T23:56:16.922Z,48.00
2022-08-19T23:58:43.710Z,48.10
